createdAt,value
2023-09-11T00:01:02.398Z,13.81
2023-09-11T00:03:30.273Z,13.85
2023-09-11T00:06:07.781Z,13.89
2023-09-11T00:08:36.127Z,13.92
2023-09-11T00:11:04.816Z,13.92
2023-09-11T00:13:32.998Z,13.97
2023-09-11T00:16:00.932Z,13.99
2023-09-11T00:18:28.700Z,14.01
2023-09-11T00:20:56.454Z,14.02
2023-09-11T00:23:24.248Z,14.04
2023-09-11T00:25:51.936Z,14.06
2023-09-11T00:28:19.782Z,14.12
2023-09-11T00:30:47.438Z,14.15
2023-09-11T00:33:15.264Z,14.17
2023-09-11T00:35:46.786Z,14.19
2023-09-11T00:38:14.590Z,14.17
2023-09-11T00:40:42.237Z,14.17
2023-09-11T00:43:09.849Z,14.19
2023-09-11T00:45:37.822Z,14.22
2023-09-11T00:48:06.216Z,14.23
2023-09-11T00:50:34.395Z,14.23
2023-09-11T00:53:04.192Z,14.29
2023-09-11T00:55:31.989Z,14.27
2023-09-11T00:57:59.679Z,14.30
2023-09-11T01:00:27.809Z,14.30
2023-09-11T01:02:55.923Z,14.29
2023-09-11T01:05:24.187Z,14.33
2023-09-11T01:07:52.018Z,14.36
2023-09-11T01:10:19.780Z,14.41
2023-09-11T01:12:47.700Z,14.44
2023-09-11T01:15:15.330Z,14.41
2023-09-11T01:18:08.608Z,14.40
2023-09-11T01:20:51.226Z,14.43
2023-09-11T01:23:50.129Z,14.40
2023-09-11T01:27:07.639Z,14.40
2023-09-11T01:29:35.920Z,14.41
2023-09-11T01:32:06.556Z,14.41
2023-09-11T01:34:34.248Z,14.41
2023-09-11T01:37:01.901Z,14.43
2023-09-11T01:39:29.789Z,14.44
2023-09-11T01:42:01.922Z,14.44
2023-09-11T01:44:44.882Z,14.44
2023-09-11T01:47:17.343Z,14.44
2023-09-11T01:49:47.069Z,14.43
2023-09-11T01:52:16.869Z,14.43
2023-09-11T01:54:44.862Z,14.43
2023-09-11T01:57:12.597Z,14.43
2023-09-11T01:59:40.274Z,14.45
2023-09-11T02:02:07.923Z,14.48
2023-09-11T02:04:35.650Z,14.48
2023-09-11T02:07:03.369Z,14.47
2023-09-11T02:09:31.079Z,14.45
2023-09-11T02:11:59.570Z,14.47
2023-09-11T02:14:29.197Z,14.48
2023-09-11T02:17:04.121Z,14.45
2023-09-11T02:19:33.140Z,14.47
2023-09-11T02:22:01.645Z,14.41
2023-09-11T02:24:29.298Z,14.43
2023-09-11T02:26:58.221Z,14.40
2023-09-11T02:29:26.270Z,14.40
2023-09-11T02:31:54.281Z,14.36
2023-09-11T02:34:22.273Z,14.36
2023-09-11T02:36:50.093Z,14.36
2023-09-11T02:39:18.026Z,14.34
2023-09-11T02:41:45.964Z,14.36
2023-09-11T02:44:13.870Z,14.37
2023-09-11T02:46:41.811Z,14.36
2023-09-11T02:49:09.826Z,14.34
2023-09-11T02:51:37.818Z,14.36
2023-09-11T02:54:05.922Z,14.34
2023-09-11T02:56:35.757Z,14.34
2023-09-11T02:59:03.753Z,14.37
2023-09-11T03:01:31.668Z,14.38
2023-09-11T03:03:59.546Z,14.37
2023-09-11T03:06:27.574Z,14.34
2023-09-11T03:08:58.167Z,14.34
2023-09-11T03:11:26.309Z,14.36
2023-09-11T03:13:54.315Z,14.33
2023-09-11T03:16:22.146Z,14.36
2023-09-11T03:18:50.170Z,14.32
2023-09-11T03:21:18.170Z,14.33
2023-09-11T03:23:46.464Z,14.30
2023-09-11T03:26:18.230Z,14.34
2023-09-11T03:28:52.817Z,14.34
2023-09-11T03:31:20.999Z,14.34
2023-09-11T03:33:49.285Z,14.34
2023-09-11T03:36:18.646Z,14.36
2023-09-11T03:38:46.982Z,14.36
2023-09-11T03:41:15.801Z,14.34
2023-09-11T03:43:43.700Z,14.34
2023-09-11T03:46:14.032Z,14.36
2023-09-11T03:48:42.905Z,14.43
2023-09-11T03:51:11.182Z,14.41
2023-09-11T03:53:44.479Z,14.45
2023-09-11T03:56:16.089Z,14.45
2023-09-11T03:58:47.547Z,14.47
2023-09-11T04:01:15.438Z,14.45
2023-09-11T04:03:44.535Z,14.44
2023-09-11T04:06:12.764Z,14.45
2023-09-11T04:08:40.774Z,14.43
2023-09-11T04:11:08.728Z,14.37
2023-09-11T04:13:36.759Z,14.38
2023-09-11T04:16:04.916Z,14.37
2023-09-11T04:18:33.038Z,14.34
2023-09-11T04:21:05.082Z,14.36
2023-09-11T04:23:33.073Z,14.27
2023-09-11T04:26:01.389Z,14.25
2023-09-11T04:28:29.366Z,14.22
2023-09-11T04:30:57.309Z,14.17
2023-09-11T04:33:25.219Z,14.10
2023-09-11T04:35:53.056Z,14.06
2023-09-11T04:38:20.960Z,14.04
2023-09-11T04:40:48.584Z,14.01
2023-09-11T04:43:16.366Z,14.01
2023-09-11T04:45:44.104Z,14.01
2023-09-11T04:48:11.815Z,13.99
2023-09-11T04:50:39.633Z,14.04
2023-09-11T04:53:07.382Z,14.06
2023-09-11T04:55:35.025Z,14.13
2023-09-11T04:58:02.710Z,14.16
2023-09-11T05:00:31.903Z,14.15
2023-09-11T05:02:59.837Z,14.08
2023-09-11T05:05:27.766Z,14.05
2023-09-11T05:07:55.997Z,14.02
2023-09-11T05:10:23.588Z,13.99
2023-09-11T05:12:51.214Z,13.92
2023-09-11T05:15:18.916Z,13.92
2023-09-11T05:17:46.585Z,13.97
2023-09-11T05:20:14.319Z,14.02
2023-09-11T05:22:42.027Z,14.05
2023-09-11T05:25:10.422Z,14.09
2023-09-11T05:27:38.306Z,14.06
2023-09-11T05:30:06.876Z,14.01
2023-09-11T05:32:35.344Z,13.86
2023-09-11T05:35:04.042Z,13.77
2023-09-11T05:37:32.100Z,13.68
2023-09-11T05:40:01.972Z,13.60
2023-09-11T05:42:30.341Z,13.62
2023-09-11T05:44:58.331Z,13.62
2023-09-11T05:47:26.534Z,13.75
2023-09-11T05:49:54.478Z,13.86
2023-09-11T05:52:22.315Z,13.92
2023-09-11T05:54:50.201Z,14.02
2023-09-11T05:57:18.150Z,14.12
2023-09-11T05:59:47.461Z,14.22
2023-09-11T06:02:15.578Z,14.25
2023-09-11T06:04:43.653Z,14.32
2023-09-11T06:07:12.836Z,14.40
2023-09-11T06:09:41.001Z,14.45
2023-09-11T06:12:09.267Z,14.50
2023-09-11T06:14:40.088Z,14.54
2023-09-11T06:17:07.926Z,14.60
2023-09-11T06:19:39.735Z,14.65
2023-09-11T06:22:07.780Z,14.70
2023-09-11T06:24:35.690Z,14.72
2023-09-11T06:27:08.443Z,14.74
2023-09-11T06:29:36.537Z,14.70
2023-09-11T06:32:05.011Z,14.61
2023-09-11T06:34:33.236Z,14.63
2023-09-11T06:37:01.235Z,14.63
2023-09-11T06:39:29.949Z,14.64
2023-09-11T06:41:57.948Z,14.71
2023-09-11T06:44:25.785Z,14.77
2023-09-11T06:46:54.035Z,14.78
2023-09-11T06:49:22.258Z,14.84
2023-09-11T06:51:51.186Z,14.82
2023-09-11T06:54:19.095Z,14.85
2023-09-11T06:56:48.535Z,14.92
2023-09-11T06:59:16.524Z,14.92
2023-09-11T07:01:44.508Z,14.91
2023-09-11T07:04:12.904Z,14.98
2023-09-11T07:06:41.996Z,15.02
2023-09-11T07:09:10.451Z,15.09
2023-09-11T07:11:38.731Z,15.00
2023-09-11T07:14:10.265Z,14.95
2023-09-11T07:16:38.159Z,14.98
2023-09-11T07:19:06.153Z,15.09
2023-09-11T07:21:34.126Z,15.19
2023-09-11T07:24:02.010Z,15.29
2023-09-11T07:26:30.295Z,15.35
2023-09-11T07:29:02.650Z,15.26
2023-09-11T07:31:32.737Z,15.09
2023-09-11T07:34:01.149Z,14.98
2023-09-11T07:36:30.756Z,14.85
2023-09-11T07:38:58.961Z,14.91
2023-09-11T07:41:26.914Z,14.99
2023-09-11T07:43:55.794Z,15.08
2023-09-11T07:46:27.431Z,15.19
2023-09-11T07:48:58.549Z,15.29
2023-09-11T07:51:28.033Z,15.37
2023-09-11T07:53:55.949Z,15.43
2023-09-11T07:56:24.205Z,15.44
2023-09-11T07:58:52.063Z,15.36
2023-09-11T08:01:20.196Z,15.30
2023-09-11T08:03:49.100Z,15.23
2023-09-11T08:06:17.179Z,15.22
2023-09-11T08:08:45.157Z,15.35
2023-09-11T08:11:18.072Z,15.44
2023-09-11T08:13:51.631Z,15.64
2023-09-11T08:16:19.732Z,15.71
2023-09-11T08:18:47.874Z,15.74
2023-09-11T08:21:18.249Z,15.78
2023-09-11T08:23:46.262Z,15.78
2023-09-11T08:26:18.949Z,15.84
2023-09-11T08:28:46.869Z,15.78
2023-09-11T08:31:14.575Z,15.70
2023-09-11T08:36:16.203Z,15.88
2023-09-11T08:38:46.336Z,15.92
2023-09-11T08:41:18.852Z,15.92
2023-09-11T08:43:46.608Z,15.99
2023-09-11T08:46:19.792Z,15.94
2023-09-11T08:48:50.890Z,15.91
2023-09-11T08:51:24.405Z,15.95
2023-09-11T08:53:56.316Z,16.09
2023-09-11T08:56:24.503Z,16.26
2023-09-11T08:58:53.621Z,16.36
2023-09-11T09:01:22.728Z,16.37
2023-09-11T09:03:53.628Z,16.36
2023-09-11T09:06:21.629Z,16.37
2023-09-11T09:08:49.888Z,16.36
2023-09-11T09:11:18.308Z,16.36
2023-09-11T09:13:45.987Z,16.42
2023-09-11T09:16:13.792Z,16.45
2023-09-11T09:18:49.758Z,16.46
2023-09-11T09:21:19.299Z,16.49
2023-09-11T09:23:47.042Z,16.56
2023-09-11T09:26:15.905Z,16.67
2023-09-11T09:28:48.964Z,16.75
2023-09-11T09:31:26.754Z,16.70
2023-09-11T09:33:57.629Z,16.63
2023-09-11T09:36:29.859Z,16.65
2023-09-11T09:38:58.559Z,16.60
2023-09-11T09:41:26.414Z,16.57
2023-09-11T09:43:56.085Z,16.61
2023-09-11T09:46:24.690Z,16.67
2023-09-11T09:48:53.288Z,16.73
2023-09-11T09:51:22.814Z,16.75
2023-09-11T09:53:55.123Z,16.78
2023-09-11T09:56:23.326Z,16.82
2023-09-11T09:58:52.690Z,16.88
2023-09-11T10:01:23.889Z,16.88
2023-09-11T10:03:55.084Z,16.80
2023-09-11T10:06:28.245Z,16.82
2023-09-11T10:09:11.922Z,16.88
2023-09-11T10:11:43.051Z,16.88
2023-09-11T10:14:12.705Z,16.95
2023-09-11T10:16:47.544Z,16.95
2023-09-11T10:19:18.578Z,16.96
2023-09-11T10:21:47.648Z,16.96
2023-09-11T10:24:16.375Z,16.95
2023-09-11T10:26:53.134Z,16.98
2023-09-11T10:29:50.677Z,17.05
2023-09-11T10:32:27.594Z,16.96
2023-09-11T10:34:55.487Z,16.95
2023-09-11T10:37:23.445Z,17.01
2023-09-11T10:39:53.165Z,17.12
2023-09-11T10:42:21.045Z,17.26
2023-09-11T10:44:48.810Z,17.25
2023-09-11T10:47:17.011Z,17.30
2023-09-11T10:49:51.209Z,17.29
2023-09-11T10:52:19.057Z,17.30
2023-09-11T10:54:48.790Z,17.22
2023-09-11T10:57:16.490Z,17.14
2023-09-11T10:59:44.251Z,17.12
2023-09-11T11:02:12.124Z,17.09
2023-09-11T11:04:41.169Z,17.09
2023-09-11T11:07:09.550Z,17.07
2023-09-11T11:09:42.374Z,17.08
2023-09-11T11:12:14.844Z,17.12
2023-09-11T11:14:43.244Z,17.20
2023-09-11T11:17:12.881Z,17.30
2023-09-11T11:20:02.153Z,17.36
2023-09-11T11:22:36.137Z,17.37
2023-09-11T11:25:08.936Z,17.36
2023-09-11T11:27:39.596Z,17.33
2023-09-11T11:30:08.018Z,17.30
2023-09-11T11:32:41.036Z,17.25
2023-09-11T11:35:11.198Z,17.26
2023-09-11T11:37:45.577Z,17.32
2023-09-11T11:40:15.005Z,17.37
2023-09-11T11:42:43.033Z,17.46
2023-09-11T11:45:11.623Z,17.56
2023-09-11T11:47:39.563Z,17.56
2023-09-11T11:50:14.208Z,17.57
2023-09-11T11:52:50.849Z,17.59
2023-09-11T11:55:22.902Z,17.51
2023-09-11T11:57:53.829Z,17.50
2023-09-11T12:00:30.426Z,17.51
2023-09-11T12:03:05.689Z,17.60
2023-09-11T12:05:33.761Z,17.57
2023-09-11T12:08:03.313Z,17.53
2023-09-11T12:10:32.870Z,17.49
2023-09-11T12:13:00.625Z,17.40
2023-09-11T12:15:30.405Z,17.32
2023-09-11T12:17:59.689Z,17.20
2023-09-11T12:20:27.375Z,17.19
2023-09-11T12:22:55.057Z,17.18
2023-09-11T12:25:22.905Z,17.14
2023-09-11T12:27:51.735Z,17.12
2023-09-11T12:30:20.446Z,17.12
2023-09-11T12:32:48.595Z,17.16
2023-09-11T12:35:31.370Z,17.12
2023-09-11T12:37:59.316Z,17.05
2023-09-11T12:40:27.288Z,17.00
2023-09-11T12:42:56.190Z,16.98
2023-09-11T12:45:24.249Z,16.94
2023-09-11T12:47:52.690Z,16.98
2023-09-11T12:50:22.862Z,16.94
2023-09-11T12:52:51.828Z,16.92
2023-09-11T12:55:21.652Z,16.88
2023-09-11T12:57:53.256Z,16.82
2023-09-11T13:00:31.973Z,16.75
2023-09-11T13:03:05.006Z,16.56
2023-09-11T13:05:34.255Z,16.43
2023-09-11T13:08:10.289Z,16.27
2023-09-11T13:10:38.359Z,16.23
2023-09-11T13:13:08.306Z,16.27
2023-09-11T13:15:37.670Z,16.33
2023-09-11T13:18:05.827Z,16.40
2023-09-11T13:20:33.817Z,16.43
2023-09-11T13:23:03.693Z,16.46
2023-09-11T13:25:31.660Z,16.49
2023-09-11T13:27:59.634Z,16.52
2023-09-11T13:30:27.609Z,16.47
2023-09-11T13:32:55.409Z,16.42
2023-09-11T13:35:23.104Z,16.32
2023-09-11T13:37:51.005Z,16.16
2023-09-11T13:40:18.667Z,16.13
2023-09-11T13:42:47.294Z,16.12
2023-09-11T13:45:16.850Z,16.10
2023-09-11T13:47:44.989Z,16.04
2023-09-11T13:50:13.364Z,16.08
2023-09-11T13:52:41.145Z,16.16
2023-09-11T13:55:09.449Z,16.20
2023-09-11T13:57:37.328Z,16.22
2023-09-11T14:00:07.267Z,16.16
2023-09-11T14:02:36.378Z,16.15
2023-09-11T14:05:04.955Z,16.19
2023-09-11T14:07:32.851Z,16.19
2023-09-11T14:10:07.496Z,16.13
2023-09-11T14:12:37.680Z,16.04
2023-09-11T14:15:05.786Z,15.99
2023-09-11T14:17:33.393Z,15.94
2023-09-11T14:20:01.175Z,15.94
2023-09-11T14:22:28.830Z,15.98
2023-09-11T14:24:56.606Z,16.06
2023-09-11T14:27:24.604Z,16.12
2023-09-11T14:29:52.548Z,16.18
2023-09-11T14:32:25.081Z,16.13
2023-09-11T14:34:55.044Z,16.09
2023-09-11T14:37:23.895Z,16.02
2023-09-11T14:39:52.448Z,16.02
2023-09-11T14:42:20.440Z,16.02
2023-09-11T14:44:48.293Z,15.99
2023-09-11T14:47:16.665Z,15.98
2023-09-11T14:49:47.717Z,15.97
2023-09-11T14:52:15.692Z,15.97
2023-09-11T14:54:53.800Z,15.97
2023-09-11T14:57:23.666Z,15.95
2023-09-11T14:59:52.061Z,15.91
2023-09-11T15:02:22.644Z,15.77
2023-09-11T15:04:52.605Z,15.74
2023-09-11T15:07:21.425Z,15.75
2023-09-11T15:09:52.778Z,15.75
2023-09-11T15:12:20.812Z,15.77
2023-09-11T15:14:52.317Z,15.77
2023-09-11T15:17:20.337Z,15.77
2023-09-11T15:19:48.430Z,15.81
2023-09-11T15:22:16.378Z,15.80
2023-09-11T15:24:44.437Z,15.78
2023-09-11T15:27:13.082Z,15.65
2023-09-11T15:29:41.605Z,15.67
2023-09-11T15:32:12.635Z,15.65
2023-09-11T15:34:42.895Z,15.73
2023-09-11T15:37:17.101Z,15.77
2023-09-11T15:39:45.327Z,15.73
2023-09-11T15:42:13.451Z,15.70
2023-09-11T15:44:41.657Z,15.60
2023-09-11T15:47:09.573Z,15.57
2023-09-11T15:49:38.299Z,15.54
2023-09-11T15:52:06.740Z,15.53
2023-09-11T15:54:35.042Z,15.47
2023-09-11T15:57:03.099Z,15.49
2023-09-11T15:59:31.286Z,15.46
2023-09-11T16:01:59.778Z,15.47
2023-09-11T16:04:27.857Z,15.51
2023-09-11T16:06:57.317Z,15.54
2023-09-11T16:09:25.149Z,15.58
2023-09-11T16:11:54.374Z,15.58
2023-09-11T16:14:22.428Z,15.57
2023-09-11T16:16:51.943Z,15.58
2023-09-11T16:19:23.132Z,15.61
2023-09-11T16:21:51.784Z,15.63
2023-09-11T16:24:19.819Z,15.63
2023-09-11T16:26:47.888Z,15.58
2023-09-11T16:29:15.993Z,15.60
2023-09-11T16:31:43.915Z,15.58
2023-09-11T16:34:12.109Z,15.55
2023-09-11T16:36:41.018Z,15.50
2023-09-11T16:39:08.990Z,15.49
2023-09-11T16:41:37.011Z,15.49
2023-09-11T16:44:05.394Z,15.47
2023-09-11T16:46:33.355Z,15.46
2023-09-11T16:49:01.461Z,15.46
2023-09-11T16:51:29.495Z,15.46
2023-09-11T16:53:57.511Z,15.46
2023-09-11T16:56:26.367Z,15.40
2023-09-11T16:58:54.431Z,15.42
2023-09-11T17:01:22.570Z,15.35
2023-09-11T17:03:50.588Z,15.36
2023-09-11T17:06:18.546Z,15.33
2023-09-11T17:08:46.470Z,15.33
2023-09-11T17:11:14.667Z,15.35
2023-09-11T17:13:46.616Z,15.35
2023-09-11T17:16:14.610Z,15.35
2023-09-11T17:18:48.075Z,15.30
2023-09-11T17:21:16.376Z,15.27
2023-09-11T17:23:44.502Z,15.29
2023-09-11T17:26:14.101Z,15.30
2023-09-11T17:28:42.278Z,15.32
2023-09-11T17:31:10.279Z,15.30
2023-09-11T17:33:38.030Z,15.30
2023-09-11T17:36:06.021Z,15.35
2023-09-11T17:38:33.857Z,15.40
2023-09-11T17:41:01.606Z,15.36
2023-09-11T17:43:30.227Z,15.35
2023-09-11T17:46:01.575Z,15.30
2023-09-11T17:48:29.384Z,15.30
2023-09-11T17:50:57.004Z,15.26
2023-09-11T17:53:24.645Z,15.29
2023-09-11T17:55:52.267Z,15.27
2023-09-11T17:58:19.845Z,15.26
2023-09-11T18:00:47.491Z,15.29
2023-09-11T18:03:15.505Z,15.27
2023-09-11T18:05:43.355Z,15.23
2023-09-11T18:08:11.126Z,15.19
2023-09-11T18:10:38.983Z,15.13
2023-09-11T18:13:06.699Z,15.03
2023-09-11T18:15:34.467Z,14.98
2023-09-11T18:18:02.204Z,14.91
2023-09-11T18:20:30.023Z,14.89
2023-09-11T18:23:03.557Z,14.92
2023-09-11T18:25:31.677Z,14.93
2023-09-11T18:27:59.544Z,14.93
2023-09-11T18:30:27.459Z,14.93
2023-09-11T18:32:56.450Z,14.95
2023-09-11T18:35:24.413Z,14.92
2023-09-11T18:37:52.476Z,14.91
2023-09-11T18:40:20.514Z,14.84
2023-09-11T18:42:48.424Z,14.77
2023-09-11T18:45:16.426Z,14.71
2023-09-11T18:47:44.561Z,14.67
2023-09-11T18:50:12.567Z,14.60
2023-09-11T18:52:43.401Z,14.53
2023-09-11T18:55:11.830Z,14.51
2023-09-11T18:57:39.780Z,14.53
2023-09-11T19:00:08.414Z,14.50
2023-09-11T19:02:36.371Z,14.48
2023-09-11T19:05:04.520Z,14.47
2023-09-11T19:07:32.522Z,14.51
2023-09-11T19:10:00.457Z,14.50
2023-09-11T19:12:28.438Z,14.45
2023-09-11T19:14:56.446Z,14.40
2023-09-11T19:17:24.369Z,14.36
2023-09-11T19:19:52.374Z,14.32
2023-09-11T19:22:20.325Z,14.25
2023-09-11T19:24:48.239Z,14.27
2023-09-11T19:27:16.105Z,14.33
2023-09-11T19:29:44.514Z,14.34
2023-09-11T19:32:13.318Z,14.38
2023-09-11T19:34:41.446Z,14.41
2023-09-11T19:37:09.280Z,14.43
2023-09-11T19:39:38.872Z,14.43
2023-09-11T19:42:06.978Z,14.43
2023-09-11T19:44:34.954Z,14.43
2023-09-11T19:47:02.779Z,14.47
2023-09-11T19:49:30.664Z,14.45
2023-09-11T19:51:58.713Z,14.45
2023-09-11T19:54:26.798Z,14.48
2023-09-11T19:56:54.824Z,14.48
2023-09-11T19:59:22.851Z,14.47
2023-09-11T20:01:50.789Z,14.45
2023-09-11T20:04:18.872Z,14.37
2023-09-11T20:06:47.735Z,14.32
2023-09-11T20:09:15.748Z,14.26
2023-09-11T20:11:46.294Z,14.20
2023-09-11T20:14:16.907Z,14.15
2023-09-11T20:16:45.362Z,14.13
2023-09-11T20:19:16.506Z,14.13
2023-09-11T20:21:44.385Z,14.09
2023-09-11T20:24:12.363Z,14.09
2023-09-11T20:26:40.263Z,14.09
2023-09-11T20:29:08.051Z,14.09
2023-09-11T20:31:35.801Z,14.08
2023-09-11T20:34:03.546Z,14.06
2023-09-11T20:36:31.329Z,14.01
2023-09-11T20:38:58.937Z,13.98
2023-09-11T20:41:26.656Z,13.95
2023-09-11T20:43:54.469Z,13.94
2023-09-11T20:46:22.384Z,13.92
2023-09-11T20:48:52.054Z,13.91
2023-09-11T20:51:20.038Z,13.91
2023-09-11T20:53:48.514Z,13.91
2023-09-11T20:56:16.233Z,13.92
2023-09-11T20:58:44.519Z,13.92
2023-09-11T21:01:12.411Z,13.94
2023-09-11T21:03:40.208Z,13.92
2023-09-11T21:06:09.951Z,13.89
2023-09-11T21:08:37.900Z,13.88
2023-09-11T21:11:05.765Z,13.81
2023-09-11T21:13:33.604Z,13.74
2023-09-11T21:16:01.263Z,13.65
2023-09-11T21:18:28.920Z,13.48
2023-09-11T21:20:56.595Z,13.32
2023-09-11T21:23:26.421Z,13.22
2023-09-11T21:25:54.146Z,13.20
2023-09-11T21:28:21.882Z,13.27
2023-09-11T21:30:50.524Z,13.30
2023-09-11T21:33:18.292Z,13.37
2023-09-11T21:35:46.157Z,13.44
2023-09-11T21:38:13.738Z,13.51
2023-09-11T21:40:41.387Z,13.58
2023-09-11T21:43:09.152Z,13.60
2023-09-11T21:45:45.773Z,13.62
2023-09-11T21:48:13.557Z,13.62
2023-09-11T21:50:41.476Z,13.68
2023-09-11T21:53:09.169Z,13.70
2023-09-11T21:55:36.875Z,13.75
2023-09-11T21:58:04.622Z,13.72
2023-09-11T22:00:32.660Z,13.77
2023-09-11T22:03:00.667Z,13.79
2023-09-11T22:05:29.193Z,13.81
2023-09-11T22:07:58.296Z,13.82
2023-09-11T22:10:25.994Z,13.81
2023-09-11T22:12:53.741Z,13.83
2023-09-11T22:15:21.467Z,13.77
2023-09-11T22:17:49.215Z,13.71
2023-09-11T22:20:16.812Z,13.71
2023-09-11T22:22:44.408Z,13.70
2023-09-11T22:25:12.189Z,13.71
2023-09-11T22:27:40.133Z,13.74
2023-09-11T22:30:08.394Z,13.75
2023-09-11T22:32:49.117Z,13.78
2023-09-11T22:35:21.209Z,13.75
2023-09-11T22:37:48.817Z,13.74
2023-09-11T22:40:16.487Z,13.72
2023-09-11T22:42:44.187Z,13.74
2023-09-11T22:45:11.942Z,13.70
2023-09-11T22:47:40.993Z,13.70
2023-09-11T22:50:09.460Z,13.67
2023-09-11T22:52:38.990Z,13.68
2023-09-11T22:55:07.554Z,13.65
2023-09-11T22:57:35.253Z,13.65
2023-09-11T23:00:03.428Z,13.68
2023-09-11T23:02:34.332Z,13.64
2023-09-11T23:05:02.069Z,13.65
2023-09-11T23:07:32.246Z,13.64
2023-09-11T23:09:59.844Z,13.65
2023-09-11T23:12:27.735Z,13.64
2023-09-11T23:14:56.583Z,13.71
2023-09-11T23:17:24.445Z,13.74
2023-09-11T23:19:52.074Z,13.77
2023-09-11T23:22:19.743Z,13.79
2023-09-11T23:24:47.346Z,13.83
2023-09-11T23:27:15.089Z,13.85
2023-09-11T23:29:43.162Z,13.89
2023-09-11T23:32:10.845Z,13.91
2023-09-11T23:34:38.627Z,13.94
2023-09-11T23:37:06.250Z,13.95
2023-09-11T23:39:33.993Z,13.95
2023-09-11T23:42:01.762Z,13.98
2023-09-11T23:44:29.412Z,13.99
2023-09-11T23:46:57.110Z,13.97
2023-09-11T23:49:24.759Z,13.97
2023-09-11T23:51:52.340Z,13.94
2023-09-11T23:54:20.403Z,13.89
2023-09-11T23:56:48.050Z,13.88
2023-09-11T23:59:16.425Z,13.85
